Airfield :
LOGIN :

Register | Disclaimer

   EN    FR    IT 

 










Legend :    VFR   Marginal VFR   IFR   Intensive IFR   Very Intensive IFR
Visi :
Ceiling :
>= 8 km
>= 3000ft
5 to 8 km
1000 to 3000 ft
1500m to 5 km
500 to 1000 ft
800 to 1500m
200 to 500 ft
< 800m
< 200 ft
Symbols :   Thunderstorms  Fog  Heavy snow  Heavy precipitations  Wind > 20 kt
SIGMETs :     Misc.  Thunderstorms  Icing  Turbulence  Mountain Waves  Volcanic Ashes






- Airport Elevation : 102 ft
- IATA code : KEL


EDHK - Holtenau

CURRENT METAR :
  • 211820Z AUTO 19011G21KT 9999 // OVC070/// 14/10 Q0998

EXPIRED METARs :
  • 211750Z AUTO 19012G22KT 160V220 9999 // BKN065/// BKN082/// OVC096/// 14/11 Q0998
  • 211720Z AUTO 19011KT 9999 // OVC060/// 14/11 Q0998
  • 211650Z AUTO 19011KT 9999 // OVC050/// 13/11 Q0999
  • 211620Z AUTO 19009KT 130V210 9999 // OVC051/// 13/11 Q0999
  • 211550Z AUTO 18009KT 9999 // FEW007/// BKN054/// BKN120/// 13/11 Q0999

TAF TAF EDHK
Valid from the 21 at 15:00 until the 21 at 19:00 UTC


211400Z 2115/2119 18008G18KT 4000 -RADZ OVC007
TEMPO 2115/2118 19013KT 9000 SCT013 SCT030
BECMG 2118/2119 20015G30KT 9999 FEW010



MET'MAP, your aeronautical weather chart ! - Copyright ORBIFLY December 2007 - Disclaimer

ORBIFLY MET'MAP TEAM :

Programming & Development : Alexandra Zaïnal
Concept & original design : Baudouin d'Aumeries
Assistance for programming : Marc-Olivier Méhu
Technical & hardware support : Manuel Goepfert

Contact : metmap@orbifly.com




SOURCES & CREDITS :

   NOAA